Time;durP1;ratioP1;P1;durP2;ratioP2;P2;SDS_P1;SDS_P2;PMS_P1;PMS_P2;Temp;Humidity;BMP_temperature;BMP_pressure;BME280_temperature;BME280_humidity;BME280_pressure;Samples;Min_cycle;Max_cycle;Signal;HPM_P1;HPM_P2
2023/04/08 07:30:32;;;;;;;;;12.50;10.50;;;;;10.62;57.94;102117.34;6218175;22;45997;-71
2023/04/08 07:32:58;;;;;;;;;11.25;11.25;;;;;10.90;58.47;102145.94;6276929;22;45181;-71
2023/04/08 07:35:24;;;;;;;;;13.25;13.00;;;;;11.07;58.24;102144.03;6277154;22;45434;-72
2023/04/08 07:37:53;;;;;;;;;16.00;12.75;;;;;11.22;57.67;102140.25;6276988;22;46783;-72
2023/04/08 07:40:18;;;;;;;;;13.25;13.25;;;;;11.31;55.50;102130.03;6249049;22;45262;-71
2023/04/08 07:42:43;;;;;;;;;17.00;15.75;;;;;11.63;56.20;102152.59;6277260;22;45271;-71
2023/04/08 07:45:09;;;;;;;;;12.75;11.25;;;;;11.79;54.53;102151.47;6276570;22;45263;-71
2023/04/08 07:47:35;;;;;;;;;9.50;9.25;;;;;11.95;55.41;102151.28;6276737;22;45272;-71
2023/04/08 07:50:01;;;;;;;;;15.50;14.75;;;;;12.16;55.63;102150.34;6277379;22;45212;-71
2023/04/08 07:52:26;;;;;;;;;16.75;16.25;;;;;12.23;53.09;102129.41;6276939;22;45217;-71
2023/04/08 07:54:52;;;;;;;;;12.25;12.25;;;;;12.52;54.18;102148.22;6277282;22;45228;-71
2023/04/08 07:57:17;;;;;;;;;18.25;16.25;;;;;12.62;52.91;102158.31;6276957;22;46976;-71
2023/04/08 07:59:42;;;;;;;;;16.50;14.75;;;;;12.62;53.01;102142.41;6277122;22;45692;-73
2023/04/08 08:02:08;;;;;;;;;16.75;16.25;;;;;12.77;54.04;102148.28;6277862;22;45154;-72
2023/04/08 08:04:33;;;;;;;;;15.00;13.75;;;;;12.93;54.26;102147.09;6276840;22;51707;-72
2023/04/08 08:06:58;;;;;;;;;15.50;12.50;;;;;13.08;51.11;102162.69;6277303;22;46229;-73
2023/04/08 08:09:24;;;;;;;;;18.75;17.50;;;;;13.25;53.68;102160.63;6276783;22;46600;-72
2023/04/08 08:11:49;;;;;;;;;18.75;16.50;;;;;13.37;52.15;102163.72;6277622;22;45176;-73
2023/04/08 08:14:15;;;;;;;;;25.00;19.75;;;;;13.53;52.06;102165.16;6277137;22;45155;-72
2023/04/08 08:16:40;;;;;;;;;24.50;17.25;;;;;13.52;52.96;102138.53;6276869;22;45815;-72
2023/04/08 08:19:07;;;;;;;;;18.00;16.50;;;;;13.71;51.57;102156.91;6277328;22;45548;-72
2023/04/08 08:21:35;;;;;;;;;50.00;39.75;;;;;13.85;51.09;102160.91;6277286;22;45256;-73
2023/04/08 08:24:01;;;;;;;;;31.25;27.25;;;;;13.91;50.20;102157.56;6277352;22;45169;-73
2023/04/08 08:26:27;;;;;;;;;19.75;19.25;;;;;13.86;50.35;102152.13;6276974;22;45256;-72
2023/04/08 08:28:53;;;;;;;;;23.25;19.00;;;;;13.98;49.65;102174.63;6277575;22;45192;-72
2023/04/08 08:31:18;;;;;;;;;14.50;14.00;;;;;14.02;49.82;102173.84;6275805;22;45215;-73
2023/04/08 08:33:43;;;;;;;;;21.75;17.00;;;;;14.05;50.14;102152.69;6277246;22;50769;-72
2023/04/08 08:36:09;;;;;;;;;19.00;13.25;;;;;14.23;50.21;102155.03;6277027;22;45278;-72
2023/04/08 08:38:34;;;;;;;;;15.25;14.25;;;;;14.46;47.99;102169.03;6277522;22;45247;-72
2023/04/08 08:41:00;;;;;;;;;17.00;14.75;;;;;14.70;48.57;102163.56;6276322;22;45121;-73
2023/04/08 08:43:27;;;;;;;;;17.75;15.75;;;;;14.90;45.65;102175.72;6276643;22;45490;-73
2023/04/08 08:45:53;;;;;;;;;17.75;15.00;;;;;15.09;48.72;102179.78;6275764;22;45359;-72
2023/04/08 08:48:19;;;;;;;;;17.25;17.25;;;;;15.26;49.03;102182.91;6276616;22;45302;-72
2023/04/08 08:50:45;;;;;;;;;20.50;18.00;;;;;15.39;47.06;102174.38;6276386;22;45225;-73
2023/04/08 08:53:11;;;;;;;;;22.25;20.25;;;;;15.53;46.07;102169.41;6276250;22;45434;-72
2023/04/08 08:55:39;;;;;;;;;19.00;17.50;;;;;15.78;47.17;102170.09;6276902;22;45423;-71
2023/04/08 08:58:06;;;;;;;;;14.75;14.75;;;;;15.91;45.06;102176.59;6248263;22;45347;-70
2023/04/08 09:00:32;;;;;;;;;21.75;15.75;;;;;15.81;43.48;102176.38;6276369;22;45236;-72
2023/04/08 09:03:16;;;;;;;;;14.75;14.75;;;;;15.88;45.19;102172.13;6277059;22;45331;-77
2023/04/08 09:05:53;;;;;;;;;15.25;15.25;;;;;15.89;46.01;102179.25;6276128;22;45401;-74
2023/04/08 09:08:33;;;;;;;;;21.75;19.00;;;;;16.06;45.96;102175.22;6276869;22;45344;-74
2023/04/08 09:11:20;;;;;;;;;17.75;16.25;;;;;16.31;46.17;102173.13;6276843;22;45215;-74
2023/04/08 09:13:46;;;;;;;;;20.00;18.00;;;;;16.48;43.60;102178.84;6275377;22;45200;-74
2023/04/08 09:16:15;;;;;;;;;16.00;13.67;;;;;16.65;45.75;102176.53;6276070;22;45647;-74
2023/04/08 09:18:43;;;;;;;;;16.75;14.75;;;;;16.67;44.70;102172.13;6248184;22;45329;-74
2023/04/08 09:21:10;;;;;;;;;23.67;17.67;;;;;16.74;43.81;102164.28;6276698;22;45250;-74
2023/04/08 09:23:41;;;;;;;;;33.75;29.00;;;;;16.94;45.02;102177.16;6276960;22;45096;-74
2023/04/08 09:26:18;;;;;;;;;19.67;17.00;;;;;16.97;43.24;102164.78;6275747;22;45289;-74
2023/04/08 09:29:00;;;;;;;;;17.67;15.33;;;;;17.23;43.97;102175.09;6276782;22;45203;-74
2023/04/08 09:31:30;;;;;;;;;18.00;18.00;;;;;17.35;42.45;102177.06;6248217;22;45661;-74
2023/04/08 09:33:57;;;;;;;;;19.67;19.00;;;;;17.42;43.47;102185.25;6276854;22;45363;-74
2023/04/08 09:36:23;;;;;;;;;13.00;12.00;;;;;17.49;41.19;102188.91;6276790;22;45259;-74
2023/04/08 09:38:49;;;;;;;;;19.33;16.67;;;;;17.59;42.94;102182.88;6276697;22;45243;-73
2023/04/08 09:41:16;;;;;;;;;21.67;18.67;;;;;17.79;40.95;102177.00;6276446;22;45252;-74
2023/04/08 09:43:50;;;;;;;;;22.67;20.33;;;;;17.96;41.91;102161.22;6276914;22;45598;-74
2023/04/08 09:46:17;;;;;;;;;15.33;14.67;;;;;18.19;42.27;102170.50;6275370;22;45335;-74
2023/04/08 09:49:24;;;;;;;;;21.00;17.00;;;;;18.26;40.79;102172.41;6276493;22;45239;-74
2023/04/08 09:52:07;;;;;;;;;18.67;18.00;;;;;18.47;42.10;102154.81;6259781;22;45484;-74
2023/04/08 09:54:53;;;;;;;;;24.33;20.00;;;;;18.68;41.48;102171.19;6272285;22;45570;-74
2023/04/08 09:57:44;;;;;;;;;17.33;17.33;;;;;18.92;41.22;102180.44;6272891;22;45689;-74
2023/04/08 10:00:12;;;;;;;;;20.33;17.00;;;;;18.96;41.21;102171.53;6273140;22;45592;-74
2023/04/08 10:02:48;;;;;;;;;20.67;14.67;;;;;19.00;41.47;102179.63;6276653;22;45243;-74
2023/04/08 10:05:15;;;;;;;;;19.33;15.67;;;;;18.95;37.67;102151.88;6275545;22;45436;-74
2023/04/08 10:07:41;;;;;;;;;14.00;14.00;;;;;19.37;40.67;102173.78;6276536;22;45227;-74
2023/04/08 10:10:09;;;;;;;;;15.00;12.00;;;;;19.45;39.65;102183.69;6276859;22;45232;-74
2023/04/08 10:12:35;;;;;;;;;13.33;11.00;;;;;19.50;37.50;102172.13;6278173;22;45278;-74
2023/04/08 10:15:32;;;;;;;;;16.00;14.00;;;;;19.48;41.03;102184.63;6277126;22;45418;-74
2023/04/08 10:18:06;;;;;;;;;14.67;14.00;;;;;19.44;39.10;102183.69;6277655;22;46225;-75
2023/04/08 10:20:34;;;;;;;;;13.33;12.33;;;;;19.54;37.59;102174.84;6277380;22;45257;-75
2023/04/08 10:23:07;;;;;;;;;13.67;13.00;;;;;19.58;38.12;102165.06;6278132;22;45288;-75
2023/04/08 10:25:40;;;;;;;;;14.33;11.00;;;;;19.76;37.90;102167.00;6282052;22;45220;-75
2023/04/08 10:28:11;;;;;;;;;17.00;16.33;;;;;20.01;39.45;102162.75;6277513;22;45621;-77
2023/04/08 10:30:36;;;;;;;;;18.33;17.33;;;;;20.26;38.12;102170.06;6276780;22;45274;-78
2023/04/08 10:33:14;;;;;;;;;14.67;14.00;;;;;20.45;35.95;102152.28;6278132;22;45346;-76
2023/04/08 10:35:52;;;;;;;;;15.00;13.67;;;;;20.66;38.74;102164.03;6277428;22;45256;-77
2023/04/08 10:38:18;;;;;;;;;17.33;16.33;;;;;20.78;37.61;102150.63;6277984;22;45173;-77
2023/04/08 10:40:44;;;;;;;;;17.00;13.00;;;;;20.93;38.58;102153.41;6277681;22;45168;-77
2023/04/08 10:43:11;;;;;;;;;21.67;21.67;;;;;20.95;35.70;102145.34;6278024;22;45229;-76
2023/04/08 10:45:38;;;;;;;;;18.67;15.67;;;;;21.11;37.14;102135.50;6277803;22;45224;-76
2023/04/08 10:48:13;;;;;;;;;15.00;11.67;;;;;21.16;37.48;102137.31;6252880;22;45271;-76
2023/04/08 10:50:39;;;;;;;;;13.67;13.33;;;;;21.30;35.42;102131.06;6277973;22;45264;-76
2023/04/08 10:53:06;;;;;;;;;14.67;12.67;;;;;21.41;35.39;102137.41;6277945;22;45284;-76
2023/04/08 10:55:32;;;;;;;;;12.67;10.67;;;;;21.57;34.66;102131.13;6277734;22;45252;-77
2023/04/08 10:58:08;;;;;;;;;14.67;13.00;;;;;21.68;35.22;102126.63;6277826;22;45219;-77
2023/04/08 11:00:38;;;;;;;;;13.67;12.00;;;;;21.89;35.68;102122.13;6276829;22;45295;-77
2023/04/08 11:03:05;;;;;;;;;16.00;16.00;;;;;21.99;33.29;102123.03;6278199;22;45327;-78
2023/04/08 11:05:32;;;;;;;;;13.00;12.00;;;;;22.02;32.79;102112.25;6277363;22;45825;-79
2023/04/08 11:08:00;;;;;;;;;13.33;13.33;;;;;22.04;31.75;102123.88;6277746;22;46293;-79
2023/04/08 11:10:27;;;;;;;;;19.33;16.67;;;;;22.05;34.14;102120.31;6277459;22;45255;-79
2023/04/08 11:12:54;;;;;;;;;21.33;18.00;;;;;22.02;34.33;102114.94;6250557;22;45265;-78
2023/04/08 11:15:20;;;;;;;;;19.00;16.67;;;;;21.79;33.31;102115.88;6276552;22;45209;-80
2023/04/08 11:17:47;;;;;;;;;38.00;33.00;;;;;21.60;32.41;102098.84;6277955;22;45286;-76
2023/04/08 11:20:13;;;;;;;;;14.00;14.00;;;;;21.63;33.42;102101.53;6275545;22;45742;-78
2023/04/08 11:22:39;;;;;;;;;12.00;11.67;;;;;21.68;34.57;102102.41;6278471;22;45139;-77
2023/04/08 11:25:07;;;;;;;;;18.33;14.33;;;;;21.74;33.35;102106.00;6277457;22;45202;-77
2023/04/08 11:27:34;;;;;;;;;21.00;21.00;;;;;21.88;34.01;102101.50;6276960;22;45993;-77
2023/04/08 11:30:01;;;;;;;;;11.00;9.67;;;;;21.95;32.44;102102.38;6277322;22;45611;-76
2023/04/08 11:32:27;;;;;;;;;15.00;13.00;;;;;22.00;32.68;102103.25;6277990;22;45245;-76
2023/04/08 11:34:53;;;;;;;;;14.67;10.33;;;;;21.81;31.97;102094.31;6276641;22;45241;-76
2023/04/08 11:37:19;;;;;;;;;11.67;7.67;;;;;21.78;33.38;102089.84;6278507;22;45141;-76
2023/04/08 11:39:45;;;;;;;;;8.00;8.00;;;;;21.90;31.61;102107.75;6279025;22;44621;-76
2023/04/08 11:42:30;;;;;;;;;13.67;11.67;;;;;22.06;32.80;102096.06;6278122;22;45217;-77
2023/04/08 11:44:56;;;;;;;;;10.00;9.00;;;;;22.10;31.41;102096.97;6276872;22;45439;-76
2023/04/08 11:47:21;;;;;;;;;10.67;9.67;;;;;22.29;31.29;102095.13;6277496;22;46466;-76
2023/04/08 11:49:47;;;;;;;;;12.33;10.67;;;;;22.47;31.70;102086.97;6277673;22;45197;-76
2023/04/08 11:52:13;;;;;;;;;10.00;10.00;;;;;22.59;33.08;102096.81;6277361;22;45400;-76
2023/04/08 11:54:42;;;;;;;;;12.00;10.00;;;;;22.50;31.13;102089.66;6277572;22;45431;-76
2023/04/08 11:57:10;;;;;;;;;13.33;12.67;;;;;22.48;33.01;102085.19;6277568;22;45404;-74
2023/04/08 11:59:36;;;;;;;;;12.67;11.67;;;;;22.50;33.47;102080.69;6276642;22;45287;-73
2023/04/08 12:02:04;;;;;;;;;9.00;9.00;;;;;22.57;32.95;102087.81;6277714;22;45238;-74
2023/04/08 12:04:30;;;;;;;;;13.67;12.67;;;;;22.63;32.19;102087.81;6277256;22;45285;-74
2023/04/08 12:06:55;;;;;;;;;14.00;11.00;;;;;22.49;31.06;102077.09;6276955;22;51887;-75
2023/04/08 12:09:21;;;;;;;;;9.67;9.00;;;;;22.63;30.99;102085.13;6277176;22;47349;-74
2023/04/08 12:11:46;;;;;;;;;13.33;10.67;;;;;22.75;31.44;102066.16;6249382;22;45231;-74
2023/04/08 12:14:12;;;;;;;;;12.00;10.33;;;;;22.90;30.38;102072.38;6277150;22;45396;-73
2023/04/08 12:16:37;;;;;;;;;15.00;14.33;;;;;23.13;32.12;102080.34;6277463;22;45301;-73
2023/04/08 12:19:02;;;;;;;;;10.67;9.00;;;;;23.18;32.46;102082.09;6277912;22;45260;-73
2023/04/08 12:21:28;;;;;;;;;12.00;9.00;;;;;23.13;29.94;102078.53;6278142;22;45250;-74
2023/04/08 12:23:53;;;;;;;;;7.67;7.67;;;;;23.15;32.10;102075.81;6249364;22;50860;-73
2023/04/08 12:26:18;;;;;;;;;14.00;10.00;;;;;23.09;31.62;102075.88;6277225;22;46199;-73
2023/04/08 12:28:44;;;;;;;;;8.67;8.33;;;;;23.21;30.52;102062.28;6277691;22;45273;-73
2023/04/08 12:31:10;;;;;;;;;7.33;7.33;;;;;23.38;31.95;102067.53;6276077;22;45186;-73
2023/04/08 12:33:36;;;;;;;;;13.33;8.67;;;;;23.48;29.57;102060.28;6277192;22;45178;-73
2023/04/08 12:36:01;;;;;;;;;7.67;7.67;;;;;23.58;30.86;102056.56;6277091;22;45261;-74
2023/04/08 12:38:26;;;;;;;;;6.67;6.67;;;;;23.38;30.54;102056.75;6249247;22;45220;-73
2023/04/08 12:40:53;;;;;;;;;9.33;8.67;;;;;23.21;30.16;102051.50;6276401;22;45465;-73
2023/04/08 12:43:18;;;;;;;;;10.33;9.67;;;;;23.35;30.04;102068.47;6277326;22;45443;-73
2023/04/08 12:45:43;;;;;;;;;9.33;8.00;;;;;23.33;29.44;102055.88;6276452;22;46068;-76
2023/04/08 12:48:09;;;;;;;;;14.33;10.67;;;;;23.42;29.74;102069.31;6277681;22;45243;-71
2023/04/08 12:50:34;;;;;;;;;14.33;9.00;;;;;23.40;29.83;102066.63;6277522;22;45464;-71
2023/04/08 12:53:00;;;;;;;;;11.00;11.00;;;;;23.39;29.10;102058.56;6277623;22;45256;-71
2023/04/08 12:55:25;;;;;;;;;7.33;7.33;;;;;23.41;31.20;102052.25;6275529;22;45901;-71
2023/04/08 12:57:51;;;;;;;;;9.00;6.00;;;;;23.55;31.75;102059.28;6249935;22;45294;-71
2023/04/08 13:00:17;;;;;;;;;9.00;5.33;;;;;23.69;31.04;102057.34;6277110;22;45236;-71
2023/04/08 13:02:43;;;;;;;;;10.33;9.00;;;;;23.88;28.58;102052.69;6277290;22;45406;-71
2023/04/08 13:05:09;;;;;;;;;8.00;8.00;;;;;23.92;30.16;102046.38;6276757;22;45938;-71
2023/04/08 13:07:34;;;;;;;;;7.67;6.67;;;;;23.99;30.38;102047.19;6277334;22;45217;-72
2023/04/08 13:10:00;;;;;;;;;11.67;8.33;;;;;23.94;30.30;102032.81;6248934;22;45240;-75
2023/04/08 13:12:25;;;;;;;;;8.00;8.00;;;;;24.06;30.35;102033.59;6275920;22;45557;-75
2023/04/08 13:14:51;;;;;;;;;5.33;5.33;;;;;24.14;28.43;102046.97;6276487;22;47298;-78
2023/04/08 13:17:17;;;;;;;;;7.33;6.33;;;;;24.23;30.09;102038.78;6249699;22;45292;-75
2023/04/08 13:19:42;;;;;;;;;12.33;9.33;;;;;24.27;30.02;102032.41;6276554;22;45233;-76
2023/04/08 13:22:08;;;;;;;;;8.67;7.00;;;;;24.12;27.28;102033.50;6277401;22;45284;-76
2023/04/08 13:24:33;;;;;;;;;11.67;10.00;;;;;24.08;27.87;102053.34;6277307;22;45114;-76
2023/04/08 13:26:58;;;;;;;;;5.67;5.67;;;;;24.07;29.00;102043.47;6277665;22;45317;-76
2023/04/08 13:29:24;;;;;;;;;8.00;8.00;;;;;24.08;28.70;102044.34;6276765;22;46628;-75
2023/04/08 13:31:50;;;;;;;;;13.33;11.00;;;;;23.98;28.19;102032.78;6276362;22;45300;-76
2023/04/08 13:34:15;;;;;;;;;8.67;8.00;;;;;24.05;29.68;102025.50;6277294;22;45357;-76
2023/04/08 13:36:41;;;;;;;;;10.67;8.33;;;;;23.99;26.92;102020.16;6277639;22;45223;-76
2023/04/08 13:39:06;;;;;;;;;7.67;7.67;;;;;24.16;27.60;102036.16;6277463;22;45245;-77
2023/04/08 13:41:33;;;;;;;;;8.33;8.33;;;;;24.18;29.18;102032.53;6277414;22;45465;-75
2023/04/08 13:43:59;;;;;;;;;8.67;7.00;;;;;24.12;29.46;102017.31;6277562;22;45120;-76
2023/04/08 13:46:25;;;;;;;;;8.33;7.33;;;;;24.24;27.73;102018.94;6277683;22;45164;-76
2023/04/08 13:48:50;;;;;;;;;7.67;7.00;;;;;24.22;29.30;102000.97;6278449;22;45184;-77
2023/04/08 13:51:15;;;;;;;;;9.33;7.67;;;;;24.42;27.85;102017.78;6248741;22;45502;-77
2023/04/08 13:53:41;;;;;;;;;10.33;7.67;;;;;24.47;26.63;102006.97;6278628;22;45337;-76
2023/04/08 13:56:06;;;;;;;;;7.00;7.00;;;;;24.71;27.65;102011.13;6278094;22;45385;-75
2023/04/08 13:58:32;;;;;;;;;7.00;7.00;;;;;24.71;28.59;102008.44;6278588;22;45371;-75
2023/04/08 14:00:57;;;;;;;;;8.00;8.00;;;;;24.61;26.35;102004.06;6277625;22;45181;-75
2023/04/08 14:03:22;;;;;;;;;10.33;8.67;;;;;24.48;27.21;101998.84;6278358;22;46123;-75
2023/04/08 14:05:49;;;;;;;;;8.00;8.00;;;;;24.64;28.84;102009.41;6278006;22;45092;-83
2023/04/08 14:08:15;;;;;;;;;8.75;8.75;;;;;24.50;28.71;101982.59;6278721;22;45197;-74
2023/04/08 14:10:40;;;;;;;;;7.25;7.25;;;;;24.53;28.17;102002.38;6248673;22;45535;-74
2023/04/08 14:13:06;;;;;;;;;7.25;7.25;;;;;24.52;27.78;102005.97;6278363;22;45315;-76
2023/04/08 14:15:31;;;;;;;;;7.00;7.00;;;;;24.24;27.26;101989.22;6275723;22;45307;-76
2023/04/08 14:17:56;;;;;;;;;9.75;8.00;;;;;24.21;28.13;102000.06;6278255;22;45780;-76
2023/04/08 14:20:22;;;;;;;;;7.00;7.00;;;;;23.95;28.83;101986.03;6250216;22;46837;-76
2023/04/08 14:22:47;;;;;;;;;9.00;9.00;;;;;23.83;29.09;101987.91;6277986;22;45172;-77
2023/04/08 14:25:12;;;;;;;;;8.67;8.67;;;;;23.89;27.85;101997.78;6274853;22;45226;-77
2023/04/08 14:27:37;;;;;;;;;11.00;7.25;;;;;23.74;29.29;101990.75;6276441;22;45256;-76
2023/04/08 14:30:03;;;;;;;;;8.00;8.00;;;;;23.61;28.07;101975.53;6274759;22;45441;-77
2023/04/08 14:32:29;;;;;;;;;7.33;6.67;;;;;23.64;28.22;101987.22;6276644;22;45144;-78
2023/04/08 14:34:54;;;;;;;;;7.33;6.33;;;;;23.73;28.34;101982.66;6276940;22;45155;-76
2023/04/08 14:37:19;;;;;;;;;11.00;8.00;;;;;23.78;28.15;101984.41;6249535;22;45426;-76
2023/04/08 14:39:45;;;;;;;;;7.33;7.33;;;;;23.82;28.68;101971.75;6276555;22;49739;-74
2023/04/08 14:42:10;;;;;;;;;6.33;6.33;;;;;23.84;28.29;101981.63;6277142;22;45311;-76
2023/04/08 14:44:36;;;;;;;;;10.33;9.00;;;;;23.77;27.92;101971.81;6275368;22;45186;-78
2023/04/08 14:47:01;;;;;;;;;10.33;9.33;;;;;23.62;27.67;101974.66;6276124;22;45360;-76
2023/04/08 14:49:26;;;;;;;;;9.33;7.67;;;;;23.64;28.22;101980.94;6246551;22;46394;-77
2023/04/08 14:51:52;;;;;;;;;6.33;6.33;;;;;23.54;28.76;101974.72;6274743;22;54816;-77
2023/04/08 14:54:17;;;;;;;;;6.33;6.33;;;;;23.57;28.76;101980.09;6272713;22;45216;-74
2023/04/08 14:56:43;;;;;;;;;7.00;7.00;;;;;23.50;28.50;101982.88;6269694;22;45291;-75
2023/04/08 14:59:08;;;;;;;;;7.00;7.00;;;;;23.42;28.95;101980.28;6271008;22;45324;-77
2023/04/08 15:01:34;;;;;;;;;7.67;7.67;;;;;23.24;28.50;101971.41;6271402;22;45329;-75
2023/04/08 15:04:00;;;;;;;;;12.00;6.50;;;;;23.26;28.75;101978.63;6272580;22;45661;-76
2023/04/08 15:06:26;;;;;;;;;6.33;6.33;;;;;23.15;28.68;101982.31;6246042;22;45260;-75
2023/04/08 15:08:51;;;;;;;;;9.67;8.33;;;;;23.18;28.63;101982.28;6277242;22;45812;-75
2023/04/08 15:11:19;;;;;;;;;10.33;9.00;;;;;23.17;28.68;101983.19;6276805;22;45325;-75
2023/04/08 15:13:45;;;;;;;;;10.33;10.33;;;;;23.14;28.43;101977.84;6277389;22;45316;-74
2023/04/08 15:16:10;;;;;;;;;7.33;7.33;;;;;23.01;28.69;101990.50;6276842;22;45275;-75
2023/04/08 15:18:36;;;;;;;;;9.00;8.00;;;;;23.02;28.84;101983.31;6277753;22;49683;-75
2023/04/08 15:21:02;;;;;;;;;8.67;8.67;;;;;23.02;29.17;101980.63;6277260;22;46009;-75
2023/04/08 15:23:27;;;;;;;;;8.00;8.00;;;;;22.90;29.12;101970.78;6274910;22;45682;-74
2023/04/08 15:25:52;;;;;;;;;11.00;9.33;;;;;22.76;29.75;101976.28;6276997;22;45166;-74
2023/04/08 15:28:18;;;;;;;;;10.67;9.67;;;;;22.58;30.05;101976.44;6276783;22;45169;-75
2023/04/08 15:30:43;;;;;;;;;10.00;7.67;;;;;22.35;29.64;101981.97;6276481;22;45231;-76
2023/04/08 15:33:08;;;;;;;;;9.33;9.33;;;;;22.20;29.47;101982.94;6278318;22;45180;-77
2023/04/08 15:35:37;;;;;;;;;11.00;9.00;;;;;22.14;30.23;101988.31;6278643;22;45288;-76
2023/04/08 15:38:02;;;;;;;;;11.00;9.33;;;;;21.99;30.27;101974.94;6276697;22;45449;-76
2023/04/08 15:40:28;;;;;;;;;10.33;8.67;;;;;21.86;30.64;101990.22;6277445;22;45965;-76
2023/04/08 15:42:53;;;;;;;;;11.00;9.00;;;;;21.59;30.93;101981.34;6277778;22;45155;-76
2023/04/08 15:45:19;;;;;;;;;7.33;7.33;;;;;21.43;31.22;101985.84;6277072;22;45271;-76
2023/04/08 15:47:44;;;;;;;;;11.33;9.00;;;;;21.06;31.54;101970.59;6277248;22;45384;-76
2023/04/08 15:50:10;;;;;;;;;13.33;12.67;;;;;21.12;31.64;101989.44;6248932;22;47078;-77
2023/04/08 15:52:35;;;;;;;;;9.00;9.00;;;;;20.98;31.83;101989.44;6277834;22;45214;-75
2023/04/08 15:55:03;;;;;;;;;11.00;9.33;;;;;20.92;31.82;101989.41;6277675;22;45692;-75
2023/04/08 15:57:31;;;;;;;;;9.00;9.00;;;;;20.92;31.88;101990.34;6277526;22;45336;-74
2023/04/08 15:59:56;;;;;;;;;11.67;10.67;;;;;20.86;32.20;101989.41;6275470;22;46024;-75
2023/04/08 16:02:21;;;;;;;;;19.67;18.33;;;;;20.79;32.16;101991.22;6250376;22;45263;-75
2023/04/08 16:04:46;;;;;;;;;13.33;11.67;;;;;20.76;32.13;101988.53;6277442;22;45290;-75
2023/04/08 16:07:12;;;;;;;;;10.00;10.00;;;;;20.72;32.50;101992.97;6276986;22;45291;-75
2023/04/08 16:09:37;;;;;;;;;13.33;11.00;;;;;20.66;32.33;101992.97;6277168;22;45997;-74
2023/04/08 16:12:03;;;;;;;;;11.00;11.00;;;;;20.50;32.60;101993.78;6249152;22;45316;-75
2023/04/08 16:14:28;;;;;;;;;12.00;12.00;;;;;20.45;32.74;101999.19;6277208;22;45260;-75
2023/04/08 16:16:54;;;;;;;;;12.00;11.67;;;;;20.33;32.85;101991.06;6276829;22;45217;-74
2023/04/08 16:19:20;;;;;;;;;14.33;12.33;;;;;20.10;33.12;101991.00;6249692;22;45552;-75
2023/04/08 16:21:46;;;;;;;;;16.33;12.33;;;;;19.96;33.46;101992.72;6277784;22;45259;-75
2023/04/08 16:24:11;;;;;;;;;13.00;12.00;;;;;19.88;33.33;101987.31;6277398;22;45307;-75
2023/04/08 16:26:36;;;;;;;;;15.00;12.33;;;;;19.69;33.67;101983.66;6277519;22;45335;-74
2023/04/08 16:29:02;;;;;;;;;17.33;15.00;;;;;19.43;34.16;101988.78;6250000;22;45259;-75
2023/04/08 16:31:27;;;;;;;;;16.67;13.33;;;;;19.32;34.08;101980.66;6248881;22;45180;-75
2023/04/08 16:33:52;;;;;;;;;11.50;11.50;;;;;19.14;34.66;101976.09;6277218;22;45423;-75
2023/04/08 16:36:18;;;;;;;;;12.67;12.67;;;;;19.09;34.78;101991.22;6248577;22;46031;-75
2023/04/08 16:38:43;;;;;;;;;13.33;12.33;;;;;19.01;34.46;101975.06;6277420;22;46208;-75
2023/04/08 16:41:08;;;;;;;;;13.67;12.33;;;;;18.92;34.67;101971.44;6276767;22;48603;-75
2023/04/08 16:43:35;;;;;;;;;12.67;11.67;;;;;18.91;34.62;101983.03;6249544;22;45721;-75
2023/04/08 16:46:11;;;;;;;;;18.67;14.67;;;;;18.81;34.99;101994.56;6275910;22;46171;-75
2023/04/08 16:48:38;;;;;;;;;13.67;13.67;;;;;18.67;35.28;101987.22;6275851;22;45500;-75
2023/04/08 16:51:04;;;;;;;;;16.67;14.00;;;;;18.60;35.77;102001.47;6274818;22;45371;-75
2023/04/08 16:53:30;;;;;;;;;17.33;17.33;;;;;18.48;35.59;101983.47;6275974;22;45145;-74
2023/04/08 16:55:55;;;;;;;;;18.00;15.67;;;;;18.43;35.99;101993.25;6276723;22;45369;-74
2023/04/08 16:58:21;;;;;;;;;17.33;16.33;;;;;18.38;36.16;101999.44;6276948;22;46223;-75
2023/04/08 17:00:46;;;;;;;;;17.33;15.67;;;;;18.25;35.67;101987.66;6250072;22;45298;-74
2023/04/08 17:03:11;;;;;;;;;16.33;16.33;;;;;18.17;36.60;101998.28;6252461;22;45429;-75
2023/04/08 17:05:37;;;;;;;;;17.00;16.33;;;;;17.89;36.16;101968.50;6277157;22;45174;-74
2023/04/08 17:08:03;;;;;;;;;18.00;18.00;;;;;17.86;36.72;101992.53;6277304;22;45144;-75
2023/04/08 17:10:28;;;;;;;;;15.00;14.00;;;;;17.64;36.93;101980.63;6277468;22;45142;-76
2023/04/08 17:12:53;;;;;;;;;23.67;16.33;;;;;17.57;37.08;101991.22;6278322;22;45178;-74
2023/04/08 17:15:19;;;;;;;;;18.67;18.67;;;;;17.40;37.34;101998.97;6277063;22;45218;-74
2023/04/08 17:17:45;;;;;;;;;20.67;18.00;;;;;17.19;37.83;101984.38;6277149;22;45261;-75
2023/04/08 17:20:10;;;;;;;;;16.00;13.67;;;;;17.06;37.58;101990.41;6275943;22;45193;-73
2023/04/08 17:22:36;;;;;;;;;19.00;16.33;;;;;16.92;38.38;101994.63;6277305;22;45327;-73
2023/04/08 17:25:01;;;;;;;;;18.67;18.33;;;;;16.80;38.08;102007.75;6277031;22;45225;-72
2023/04/08 17:27:26;;;;;;;;;23.67;18.33;;;;;16.64;39.61;101985.19;6277085;22;45232;-73
2023/04/08 17:29:56;;;;;;;;;19.33;18.67;;;;;16.67;39.61;102010.16;6275470;22;45233;-73
2023/04/08 17:32:23;;;;;;;;;17.67;15.33;;;;;16.58;38.38;102010.00;6277483;22;45265;-74
2023/04/08 17:34:49;;;;;;;;;20.00;16.00;;;;;16.43;39.77;101999.00;6276878;22;45437;-73
2023/04/08 17:37:15;;;;;;;;;15.00;14.00;;;;;16.30;39.59;101997.91;6276056;22;46045;-72
2023/04/08 17:39:40;;;;;;;;;18.33;16.00;;;;;16.22;38.83;102002.19;6276313;22;45258;-72
2023/04/08 17:42:09;;;;;;;;;20.33;18.33;;;;;16.06;40.48;101993.84;6277517;22;45216;-74
2023/04/08 17:44:35;;;;;;;;;20.00;18.00;;;;;15.96;40.59;101996.28;6276554;22;45252;-73
2023/04/08 17:47:00;;;;;;;;;18.33;17.33;;;;;15.86;40.77;101995.19;6249140;22;46256;-73
2023/04/08 17:49:27;;;;;;;;;21.00;21.00;;;;;15.77;40.40;101997.66;6275514;22;45229;-74
2023/04/08 17:51:53;;;;;;;;;24.25;21.50;;;;;15.63;41.41;101989.31;6275675;22;45403;-74
2023/04/08 17:54:18;;;;;;;;;17.67;16.00;;;;;15.58;41.45;101999.88;6248582;22;46052;-75
2023/04/08 17:56:43;;;;;;;;;18.75;18.50;;;;;15.50;40.95;102001.44;6276027;22;45249;-74
2023/04/08 17:59:09;;;;;;;;;15.00;15.00;;;;;15.50;41.88;102011.22;6276710;22;45229;-74
2023/04/08 18:01:36;;;;;;;;;19.75;19.00;;;;;15.43;41.66;102010.16;6276921;22;45199;-74
2023/04/08 18:04:02;;;;;;;;;23.25;22.50;;;;;15.09;42.49;101977.38;6249056;22;45445;-73
2023/04/08 18:06:28;;;;;;;;;22.50;22.50;;;;;15.28;41.33;102017.78;6275783;22;46033;-73
2023/04/08 18:08:53;;;;;;;;;21.75;19.00;;;;;15.11;42.83;102007.59;6276861;22;45334;-74
2023/04/08 18:11:19;;;;;;;;;25.75;22.75;;;;;15.11;41.26;102012.03;6276345;22;46981;-72
2023/04/08 18:13:47;;;;;;;;;22.25;21.50;;;;;15.04;41.95;102011.00;6276788;22;45470;-72
2023/04/08 18:16:16;;;;;;;;;27.75;21.75;;;;;14.96;43.11;102010.78;6274490;22;45400;-72
2023/04/08 18:18:41;;;;;;;;;24.00;22.25;;;;;14.83;41.86;102008.66;6276947;22;45267;-74
2023/04/08 18:21:07;;;;;;;;;22.50;21.50;;;;;14.80;42.59;102021.91;6276291;22;47362;-75
2023/04/08 18:23:32;;;;;;;;;28.50;22.75;;;;;14.72;41.85;102010.13;6276736;22;45434;-74
2023/04/08 18:25:57;;;;;;;;;22.75;21.75;;;;;14.60;43.50;102026.69;6276230;22;45315;-74
2023/04/08 18:28:23;;;;;;;;;18.50;17.50;;;;;14.43;43.98;102006.66;6276845;22;45231;-72
2023/04/08 18:30:51;;;;;;;;;24.25;22.25;;;;;14.42;43.73;102023.47;6276476;22;45899;-72
2023/04/08 18:33:17;;;;;;;;;18.25;17.00;;;;;14.30;44.85;102029.34;6278206;22;45422;-72
2023/04/08 18:35:43;;;;;;;;;25.50;21.75;;;;;14.09;43.75;102009.25;6277945;22;45298;-72
2023/04/08 18:38:08;;;;;;;;;21.00;18.50;;;;;14.06;44.91;102029.53;6278375;22;45160;-73
2023/04/08 18:40:34;;;;;;;;;23.75;19.00;;;;;13.93;44.06;102014.97;6250249;22;45272;-73
2023/04/08 18:43:02;;;;;;;;;22.00;20.00;;;;;13.86;44.23;102020.94;6277486;22;44793;-71